Time;durP1;ratioP1;P1;durP2;ratioP2;P2;SDS_P1;SDS_P2;PMS_P1;PMS_P2;Temp;Humidity;BMP_temperature;BMP_pressure;BME280_temperature;BME280_humidity;BME280_pressure;Samples;Min_cycle;Max_cycle;Signal;HPM_P1;HPM_P2
2021/08/13 00:00:49;;;;;;;13.80;9.77;;;18.30;99.90;;;;;;5051508;28;20226;-61
2021/08/13 00:03:17;;;;;;;13.93;10.20;;;18.30;99.90;;;;;;5052603;28;20732;-61
2021/08/13 00:05:43;;;;;;;11.13;9.17;;;18.30;99.90;;;;;;5052351;28;20210;-61
2021/08/13 00:08:10;;;;;;;19.43;10.03;;;18.30;99.90;;;;;;5052827;28;20263;-61
2021/08/13 00:10:38;;;;;;;13.80;10.27;;;18.30;1.00;;;;;;5052353;28;20230;-62
2021/08/13 00:13:05;;;;;;;15.97;10.03;;;18.20;1.00;;;;;;5052459;28;20209;-62
2021/08/13 00:15:32;;;;;;;18.30;11.73;;;18.20;1.00;;;;;;5052011;28;20206;-62
2021/08/13 00:17:59;;;;;;;14.07;10.63;;;18.20;1.00;;;;;;5052454;28;20206;-62
2021/08/13 00:20:26;;;;;;;17.70;12.03;;;18.20;1.00;;;;;;5051791;28;20225;-62
2021/08/13 00:22:53;;;;;;;17.63;11.13;;;18.20;1.00;;;;;;5052552;28;20229;-63
2021/08/13 00:25:20;;;;;;;17.53;11.73;;;18.20;1.00;;;;;;5051950;28;20209;-62
2021/08/13 00:27:48;;;;;;;14.03;10.83;;;18.20;1.00;;;;;;5052244;28;20625;-63
2021/08/13 00:30:15;;;;;;;13.27;10.10;;;18.20;1.00;;;;;;5051868;28;20237;-62
2021/08/13 00:32:42;;;;;;;16.27;10.00;;;18.20;1.00;;;;;;5052212;28;20251;-62
2021/08/13 00:35:09;;;;;;;15.60;10.20;;;18.10;1.00;;;;;;5051513;28;20206;-62
2021/08/13 00:37:37;;;;;;;13.47;10.13;;;18.20;1.00;;;;;;5051997;28;20625;-62
2021/08/13 00:40:04;;;;;;;15.83;11.83;;;18.20;1.00;;;;;;5051830;28;20221;-61
2021/08/13 00:42:31;;;;;;;16.20;9.97;;;18.20;1.00;;;;;;5051891;28;20229;-61
2021/08/13 00:44:59;;;;;;;13.87;10.03;;;18.20;1.00;;;;;;5051594;28;20209;-62
2021/08/13 00:47:25;;;;;;;13.53;9.90;;;18.20;1.00;;;;;;5051954;28;20213;-62
2021/08/13 00:49:52;;;;;;;18.13;9.73;;;18.20;1.00;;;;;;5052353;28;20611;-61
2021/08/13 00:52:19;;;;;;;14.90;10.33;;;18.10;1.00;;;;;;5050343;28;20682;-63
2021/08/13 00:54:46;;;;;;;15.23;10.33;;;18.10;1.00;;;;;;5051465;28;20213;-62
2021/08/13 00:57:13;;;;;;;18.20;10.20;;;18.10;1.00;;;;;;5051562;28;20202;-62
2021/08/13 00:59:41;;;;;;;13.37;10.67;;;18.10;1.00;;;;;;5051700;28;20295;-61
2021/08/13 01:02:09;;;;;;;15.00;10.50;;;18.10;1.00;;;;;;5051321;28;20222;-62
2021/08/13 01:04:36;;;;;;;13.30;10.13;;;18.10;1.00;;;;;;5051018;28;20229;-62
2021/08/13 01:07:03;;;;;;;12.60;10.10;;;18.10;1.00;;;;;;5051528;28;20727;-62
2021/08/13 01:09:30;;;;;;;12.80;10.20;;;18.10;1.00;;;;;;5049417;28;20202;-63
2021/08/13 01:12:01;;;;;;;14.53;10.23;;;18.10;1.00;;;;;;5050951;28;20287;-62
2021/08/13 01:14:35;;;;;;;13.57;9.77;;;18.10;1.00;;;;;;5051163;28;20568;-61
2021/08/13 01:17:03;;;;;;;13.37;9.37;;;18.10;1.00;;;;;;5051467;28;20205;-61
2021/08/13 01:19:42;;;;;;;11.77;9.13;;;18.10;1.00;;;;;;5051599;28;20262;-62
2021/08/13 01:22:12;;;;;;;13.43;9.80;;;18.10;1.00;;;;;;5051474;28;20261;-62
2021/08/13 01:24:45;;;;;;;12.67;9.43;;;18.10;1.00;;;;;;5051138;28;20202;-62
2021/08/13 01:27:17;;;;;;;15.30;9.20;;;18.10;1.00;;;;;;5049144;28;20209;-62
2021/08/13 01:29:47;;;;;;;12.60;9.63;;;18.10;1.00;;;;;;5051255;28;20259;-61
2021/08/13 01:32:40;;;;;;;12.87;9.43;;;18.20;1.00;;;;;;5051649;28;20198;-61
2021/08/13 01:35:10;;;;;;;13.17;9.70;;;18.20;1.00;;;;;;5046382;28;20263;-61
2021/08/13 01:37:40;;;;;;;15.33;9.73;;;18.20;1.00;;;;;;5051003;28;20263;-61
2021/08/13 01:40:11;;;;;;;13.63;8.90;;;18.20;1.00;;;;;;5051271;28;20226;-61
2021/08/13 01:42:39;;;;;;;10.67;8.20;;;18.20;1.00;;;;;;5051331;28;20254;-61
2021/08/13 01:45:08;;;;;;;14.63;9.10;;;18.10;1.00;;;;;;5048697;28;20205;-62
2021/08/13 01:47:36;;;;;;;11.63;9.20;;;18.10;1.00;;;;;;5051081;28;20272;-61
2021/08/13 01:50:05;;;;;;;11.90;8.77;;;18.10;1.00;;;;;;5050848;28;20233;-61
2021/08/13 01:52:33;;;;;;;10.80;8.57;;;18.00;1.00;;;;;;5050909;28;20544;-61
2021/08/13 01:55:00;;;;;;;11.17;8.57;;;18.00;1.00;;;;;;5050804;28;20274;-62
2021/08/13 01:57:27;;;;;;;11.30;8.70;;;18.00;1.00;;;;;;5050971;28;20256;-61
2021/08/13 01:59:54;;;;;;;11.40;8.37;;;18.00;1.00;;;;;;5050966;28;20613;-62
2021/08/13 02:02:20;;;;;;;12.03;8.50;;;18.00;1.00;;;;;;5049219;28;20221;-62
2021/08/13 02:04:51;;;;;;;9.80;8.00;;;18.00;1.00;;;;;;5050783;28;20352;-62
2021/08/13 02:07:20;;;;;;;12.03;8.87;;;17.90;1.00;;;;;;5051468;28;20209;-62
2021/08/13 02:09:46;;;;;;;11.57;7.77;;;17.90;1.00;;;;;;5050815;28;20260;-60
2021/08/13 02:12:14;;;;;;;11.90;8.83;;;17.90;1.00;;;;;;5050837;28;20670;-61
2021/08/13 02:14:41;;;;;;;11.33;8.80;;;17.90;1.00;;;;;;5050913;28;20620;-62
2021/08/13 02:17:12;;;;;;;13.20;8.40;;;17.90;1.00;;;;;;5049441;28;20197;-61
2021/08/13 02:19:43;;;;;;;11.47;8.73;;;17.90;1.00;;;;;;5050922;28;20259;-61
2021/08/13 02:22:10;;;;;;;9.73;7.70;;;17.80;1.00;;;;;;5050878;28;20275;-62
2021/08/13 02:24:38;;;;;;;10.20;8.10;;;17.80;1.00;;;;;;5053073;28;20263;-62
2021/08/13 02:27:05;;;;;;;10.80;8.73;;;17.80;1.00;;;;;;5054205;28;20212;-61
2021/08/13 02:29:31;;;;;;;10.93;8.43;;;17.80;1.00;;;;;;5054289;28;20201;-62
2021/08/13 02:31:58;;;;;;;10.00;8.43;;;17.70;1.00;;;;;;5054102;28;20238;-61
2021/08/13 02:34:26;;;;;;;11.10;8.80;;;17.70;1.00;;;;;;5052556;28;20212;-62
2021/08/13 02:36:56;;;;;;;9.57;7.37;;;17.60;1.00;;;;;;5054478;28;20214;-61
2021/08/13 02:39:26;;;;;;;11.97;8.53;;;17.60;1.00;;;;;;5054403;28;20213;-61
2021/08/13 02:41:56;;;;;;;11.20;8.70;;;17.50;1.00;;;;;;5053688;28;20283;-61
2021/08/13 02:44:23;;;;;;;12.57;9.00;;;17.50;1.00;;;;;;5054044;28;20271;-62
2021/08/13 02:46:56;;;;;;;14.83;8.20;;;17.50;1.00;;;;;;5054251;28;20202;-61
2021/08/13 02:49:25;;;;;;;12.40;9.13;;;17.50;99.90;;;;;;5054099;28;20210;-60
2021/08/13 02:51:56;;;;;;;11.63;9.13;;;17.50;99.90;;;;;;5052529;28;20637;-61
2021/08/13 02:54:26;;;;;;;13.10;8.70;;;17.50;99.90;;;;;;5053687;28;20213;-62
2021/08/13 02:56:56;;;;;;;12.70;8.90;;;17.40;99.90;;;;;;5053582;28;20255;-59
2021/08/13 02:59:25;;;;;;;11.93;8.80;;;17.40;99.90;;;;;;5054002;28;20220;-62
2021/08/13 03:01:53;;;;;;;14.47;9.43;;;17.30;99.90;;;;;;5053706;28;20679;-60
2021/08/13 03:04:21;;;;;;;11.27;8.83;;;17.20;99.90;;;;;;5053432;28;20210;-62
2021/08/13 03:06:49;;;;;;;12.00;9.17;;;17.30;99.90;;;;;;5053829;28;20206;-61
2021/08/13 03:09:17;;;;;;;11.43;9.20;;;17.20;99.90;;;;;;5051650;28;20275;-61
2021/08/13 03:11:45;;;;;;;12.27;9.03;;;17.20;99.90;;;;;;5053538;28;20226;-59
2021/08/13 03:14:14;;;;;;;11.13;9.47;;;17.10;99.90;;;;;;5053307;28;20255;-61
2021/08/13 03:16:42;;;;;;;12.47;8.70;;;17.20;99.90;;;;;;5053654;28;20264;-61
2021/08/13 03:19:10;;;;;;;11.60;9.43;;;17.20;99.90;;;;;;5053761;28;20263;-61
2021/08/13 03:21:40;;;;;;;15.10;8.90;;;17.10;99.90;;;;;;5053138;28;20651;-62
2021/08/13 03:24:07;;;;;;;12.23;8.90;;;17.10;1.00;;;;;;5053651;28;20259;-61
2021/08/13 03:26:35;;;;;;;17.30;8.80;;;17.10;1.00;;;;;;5038780;28;20203;-62
2021/08/13 03:29:01;;;;;;;15.77;9.87;;;17.00;1.00;;;;;;5033655;28;20702;-62
2021/08/13 03:31:37;;;;;;;13.70;9.43;;;17.00;1.00;;;;;;5033069;28;20230;-61
2021/08/13 03:34:05;;;;;;;12.93;9.60;;;17.00;1.00;;;;;;5032975;28;20255;-61
2021/08/13 03:36:32;;;;;;;12.37;9.43;;;17.00;99.90;;;;;;5033087;28;20703;-63
2021/08/13 03:38:58;;;;;;;12.20;8.70;;;16.90;1.00;;;;;;5033536;28;20207;-62
2021/08/13 03:41:25;;;;;;;13.90;9.70;;;16.90;99.90;;;;;;5033249;28;20714;-62
2021/08/13 03:43:52;;;;;;;13.83;9.63;;;17.00;99.90;;;;;;5031527;28;20789;-62
2021/08/13 03:46:19;;;;;;;11.33;9.17;;;17.00;1.00;;;;;;5033044;28;20681;-62
2021/08/13 03:48:47;;;;;;;13.27;9.10;;;16.90;1.00;;;;;;5033081;28;20218;-62
2021/08/13 03:51:13;;;;;;;14.07;9.50;;;17.00;1.00;;;;;;5033162;28;20230;-61
2021/08/13 03:53:40;;;;;;;11.93;9.90;;;16.90;1.00;;;;;;5033168;28;20199;-62
2021/08/13 03:56:07;;;;;;;12.10;9.60;;;16.90;1.00;;;;;;5032439;28;20840;-62
2021/08/13 03:58:33;;;;;;;13.40;9.17;;;16.90;1.00;;;;;;5033049;28;20625;-62
2021/08/13 04:01:00;;;;;;;14.27;10.37;;;16.80;99.90;;;;;;5031235;28;21020;-62
2021/08/13 04:03:27;;;;;;;13.83;9.77;;;16.80;99.90;;;;;;5032415;28;20238;-62
2021/08/13 04:05:55;;;;;;;14.63;10.43;;;16.80;1.00;;;;;;5032829;28;20210;-62
2021/08/13 04:08:21;;;;;;;12.47;9.40;;;16.80;99.90;;;;;;5032031;28;20605;-61
2021/08/13 04:10:48;;;;;;;11.70;9.30;;;16.80;1.00;;;;;;5032603;28;20230;-62
2021/08/13 04:13:14;;;;;;;11.90;9.53;;;16.80;99.90;;;;;;5032453;28;20335;-62
2021/08/13 04:15:41;;;;;;;14.00;9.10;;;16.80;99.90;;;;;;5030854;28;20627;-62
2021/08/13 04:18:08;;;;;;;11.27;9.20;;;16.80;99.90;;;;;;5030805;28;20211;-62
2021/08/13 04:20:34;;;;;;;12.37;9.53;;;16.70;1.00;;;;;;5032356;28;20230;-63
2021/08/13 04:23:02;;;;;;;12.97;9.77;;;16.80;1.00;;;;;;5042735;28;20690;-61
2021/08/13 04:25:29;;;;;;;13.00;9.80;;;16.80;1.00;;;;;;5050129;28;20251;-61
2021/08/13 04:27:56;;;;;;;15.53;10.00;;;16.80;99.90;;;;;;5052049;28;20194;-61
2021/08/13 04:30:23;;;;;;;13.47;9.67;;;16.80;99.90;;;;;;5051523;28;20240;-60
2021/08/13 04:32:50;;;;;;;10.90;9.50;;;16.80;99.90;;;;;;5051942;28;20210;-60
2021/08/13 04:35:17;;;;;;;13.30;10.10;;;16.80;99.90;;;;;;5050288;28;20209;-61
2021/08/13 04:37:43;;;;;;;12.87;9.77;;;16.80;99.90;;;;;;5052033;28;20255;-61
2021/08/13 04:40:12;;;;;;;13.30;9.63;;;16.80;99.90;;;;;;5051552;28;20272;-61
2021/08/13 04:42:38;;;;;;;15.13;9.70;;;16.80;99.90;;;;;;5048471;28;20226;-61
2021/08/13 04:45:06;;;;;;;12.13;9.83;;;16.90;99.90;;;;;;5051480;28;20243;-61
2021/08/13 04:47:33;;;;;;;12.07;9.23;;;16.90;1.00;;;;;;5051458;28;20259;-59
2021/08/13 04:49:59;;;;;;;16.10;9.13;;;16.90;99.90;;;;;;5040481;28;20256;-59
2021/08/13 04:52:26;;;;;;;14.20;9.27;;;16.90;99.90;;;;;;5029784;28;20203;-61
2021/08/13 04:54:52;;;;;;;11.97;9.73;;;16.90;99.90;;;;;;5031759;28;20211;-60
2021/08/13 04:57:20;;;;;;;12.83;9.33;;;16.90;99.90;;;;;;5031367;28;20198;-61
2021/08/13 04:59:47;;;;;;;12.43;9.53;;;17.00;1.00;;;;;;5031508;28;20299;-61
2021/08/13 05:02:13;;;;;;;11.67;9.37;;;17.00;1.00;;;;;;5031694;28;20260;-61
2021/08/13 05:04:40;;;;;;;13.13;9.50;;;17.00;1.00;;;;;;5039180;28;20620;-62
2021/08/13 05:07:07;;;;;;;16.50;10.10;;;17.10;99.90;;;;;;5051786;28;20205;-61
2021/08/13 05:09:35;;;;;;;11.73;9.43;;;17.10;37.80;;;;;;5051647;28;20618;-61
2021/08/13 05:12:02;;;;;;;15.20;10.37;;;17.20;99.90;;;;;;5051089;28;20221;-60
2021/08/13 05:14:30;;;;;;;12.43;9.00;;;17.30;1.00;;;;;;5051255;28;20205;-60
2021/08/13 05:16:56;;;;;;;12.60;9.40;;;17.40;1.00;;;;;;5051631;28;20624;-60
2021/08/13 05:19:23;;;;;;;12.17;9.30;;;17.50;99.90;;;;;;5039370;28;20211;-60
2021/08/13 05:21:50;;;;;;;12.03;8.93;;;17.50;99.90;;;;;;5031163;28;20272;-59
2021/08/13 05:24:16;;;;;;;13.00;9.30;;;17.60;99.90;;;;;;5035535;28;20237;-57
2021/08/13 05:26:43;;;;;;;11.33;8.87;;;17.70;6.50;;;;;;5050850;28;20205;-59
2021/08/13 05:29:09;;;;;;;11.63;8.83;;;17.80;1.00;;;;;;5049798;28;20278;-65
2021/08/13 05:31:37;;;;;;;13.67;8.83;;;18.00;99.90;;;;;;5049878;28;20233;-64
2021/08/13 05:34:04;;;;;;;11.20;8.50;;;18.10;99.90;;;;;;5047337;28;20201;-63
2021/08/13 05:36:30;;;;;;;13.27;9.33;;;18.20;99.90;;;;;;5050989;28;20267;-60
2021/08/13 05:38:57;;;;;;;15.23;8.83;;;18.40;1.00;;;;;;5050747;28;20554;-59
2021/08/13 05:41:24;;;;;;;10.30;9.03;;;18.50;99.90;;;;;;5050322;28;20286;-58
2021/08/13 05:43:51;;;;;;;13.47;8.63;;;18.60;99.90;;;;;;5050076;28;20375;-60
2021/08/13 05:46:17;;;;;;;12.57;8.67;;;18.80;99.90;;;;;;5051046;28;20205;-59
2021/08/13 05:48:45;;;;;;;11.43;8.17;;;18.90;99.90;;;;;;5050669;28;20213;-62
2021/08/13 05:51:12;;;;;;;11.37;9.10;;;19.00;99.90;;;;;;5050817;28;20225;-64
2021/08/13 05:53:38;;;;;;;10.87;8.60;;;19.10;99.90;;;;;;5050175;28;20247;-65
2021/08/13 05:56:05;;;;;;;11.20;8.43;;;19.20;99.90;;;;;;5050494;28;20354;-63
2021/08/13 05:58:32;;;;;;;10.60;8.23;;;19.30;47.00;;;;;;5051715;28;20259;-62
2021/08/13 06:00:58;;;;;;;12.73;8.60;;;19.40;99.90;;;;;;5054470;28;20234;-64
2021/08/13 06:03:25;;;;;;;11.47;8.53;;;19.40;1.00;;;;;;5053784;28;20252;-62
2021/08/13 06:05:53;;;;;;;12.10;7.83;;;19.50;99.90;;;;;;5054687;28;20236;-62
2021/08/13 06:08:19;;;;;;;12.97;8.60;;;19.60;99.90;;;;;;5054115;28;20267;-59
2021/08/13 06:10:46;;;;;;;12.10;8.27;;;19.70;99.90;;;;;;5054252;28;20733;-60
2021/08/13 06:13:12;;;;;;;11.97;7.97;;;19.70;99.90;;;;;;5053868;28;20266;-61
2021/08/13 06:15:39;;;;;;;12.80;8.00;;;19.90;99.90;;;;;;5054077;28;20678;-61
2021/08/13 06:18:06;;;;;;;12.13;7.93;;;20.00;31.70;;;;;;5054276;28;20213;-61
2021/08/13 06:20:32;;;;;;;9.83;8.00;;;20.10;36.50;;;;;;5054065;28;20722;-60
2021/08/13 06:23:00;;;;;;;11.73;8.10;;;20.20;10.90;;;;;;5053354;28;20287;-68
2021/08/13 06:25:27;;;;;;;10.60;8.23;;;20.40;1.00;;;;;;5054011;28;20445;-64
2021/08/13 06:27:53;;;;;;;11.17;8.17;;;20.50;1.00;;;;;;5054147;28;20627;-66
2021/08/13 06:30:22;;;;;;;13.37;7.87;;;20.70;1.00;;;;;;5053922;28;20240;-66
2021/08/13 06:32:48;;;;;;;10.67;8.23;;;20.90;1.00;;;;;;5053498;28;20213;-66
2021/08/13 06:35:15;;;;;;;12.03;8.13;;;21.10;1.00;;;;;;5053668;28;20209;-66
2021/08/13 06:37:46;;;;;;;9.67;8.07;;;21.20;1.00;;;;;;5053574;28;20217;-67
2021/08/13 06:40:15;;;;;;;10.80;8.17;;;21.30;1.00;;;;;;5053997;28;20249;-66
2021/08/13 06:42:42;;;;;;;10.27;8.13;;;21.40;1.00;;;;;;5053313;28;20206;-66
2021/08/13 06:45:09;;;;;;;14.07;7.93;;;21.60;1.00;;;;;;5053387;28;20302;-66
2021/08/13 06:47:36;;;;;;;9.90;8.20;;;21.70;1.00;;;;;;5053769;28;20202;-66
2021/08/13 06:50:03;;;;;;;11.20;8.37;;;21.70;1.00;;;;;;5053253;28;20270;-66
2021/08/13 06:52:30;;;;;;;11.93;8.57;;;21.90;1.00;;;;;;5053080;28;20674;-66
2021/08/13 06:54:56;;;;;;;11.13;8.10;;;22.00;1.00;;;;;;5053294;28;20197;-66
2021/08/13 06:57:24;;;;;;;9.93;7.93;;;22.10;1.00;;;;;;5052275;28;20201;-66
2021/08/13 06:59:51;;;;;;;15.40;9.23;;;22.20;1.00;;;;;;5053379;28;20210;-64
2021/08/13 07:02:18;;;;;;;12.33;8.27;;;22.30;1.00;;;;;;5053684;28;20214;-65
2021/08/13 07:04:44;;;;;;;13.43;8.20;;;22.20;1.00;;;;;;5052355;28;20279;-65
2021/08/13 07:07:13;;;;;;;11.83;8.40;;;22.20;1.00;;;;;;5053351;28;20205;-66
2021/08/13 07:09:45;;;;;;;11.60;8.60;;;22.20;1.00;;;;;;5052957;28;20228;-65
2021/08/13 07:12:12;;;;;;;10.73;8.47;;;22.30;1.00;;;;;;5053322;28;20205;-65
2021/08/13 07:14:40;;;;;;;13.13;8.53;;;22.40;1.00;;;;;;5052943;28;20206;-66
2021/08/13 07:17:07;;;;;;;10.73;8.30;;;22.40;1.00;;;;;;5051114;28;20247;-65
2021/08/13 07:19:33;;;;;;;12.57;8.33;;;22.20;1.00;;;;;;5053257;28;20221;-67
2021/08/13 07:22:00;;;;;;;10.33;8.40;;;22.20;1.00;;;;;;5053113;28;20230;-68
2021/08/13 07:24:26;;;;;;;10.67;8.03;;;22.30;1.00;;;;;;5052316;28;20759;-68
2021/08/13 07:26:53;;;;;;;10.30;8.27;;;22.20;1.00;;;;;;5052901;28;20255;-68
2021/08/13 07:29:21;;;;;;;9.57;8.10;;;22.20;1.00;;;;;;5052841;28;20205;-63
2021/08/13 07:31:49;;;;;;;11.67;8.23;;;22.30;1.00;;;;;;5052616;28;20237;-64
2021/08/13 07:34:16;;;;;;;12.70;9.07;;;22.40;1.00;;;;;;5050946;28;20271;-65
2021/08/13 07:36:43;;;;;;;11.70;8.17;;;22.40;1.00;;;;;;5052578;28;20623;-65
2021/08/13 07:39:09;;;;;;;10.47;8.83;;;22.50;1.00;;;;;;5052844;28;20209;-65
2021/08/13 07:41:36;;;;;;;14.90;8.70;;;22.60;1.00;;;;;;5052395;28;20226;-65
2021/08/13 07:44:02;;;;;;;13.67;8.77;;;22.70;1.00;;;;;;5052008;28;20225;-67
2021/08/13 07:46:29;;;;;;;11.77;8.80;;;22.90;1.00;;;;;;5052039;28;20243;-65
2021/08/13 07:48:57;;;;;;;11.33;9.00;;;23.00;1.00;;;;;;5052853;28;20614;-65
2021/08/13 07:51:24;;;;;;;14.97;9.23;;;23.10;1.00;;;;;;5050906;28;20281;-66
2021/08/13 07:53:51;;;;;;;13.73;8.80;;;23.20;1.00;;;;;;5051912;28;20709;-64
2021/08/13 07:56:17;;;;;;;12.33;8.40;;;23.40;1.00;;;;;;5052158;28;20232;-65
2021/08/13 07:58:44;;;;;;;11.60;8.50;;;23.40;1.00;;;;;;5052324;28;20213;-65
2021/08/13 08:01:10;;;;;;;12.90;8.60;;;23.50;1.00;;;;;;5052451;28;20287;-65
2021/08/13 08:03:37;;;;;;;13.70;9.17;;;23.50;1.00;;;;;;5051746;28;20279;-65
2021/08/13 08:06:05;;;;;;;12.27;9.30;;;23.50;1.00;;;;;;5052298;28;20628;-65
2021/08/13 08:08:32;;;;;;;13.57;9.40;;;23.50;1.00;;;;;;5052283;28;20210;-63
2021/08/13 08:10:59;;;;;;;13.77;9.53;;;23.60;1.00;;;;;;5030961;28;20714;-63
2021/08/13 08:13:26;;;;;;;13.10;9.43;;;23.30;1.00;;;;;;5031416;28;20674;-64
2021/08/13 08:15:52;;;;;;;17.33;10.40;;;23.30;1.00;;;;;;5032354;28;20256;-64
2021/08/13 08:18:20;;;;;;;15.53;10.37;;;23.30;1.00;;;;;;5032208;28;20206;-67
2021/08/13 08:20:47;;;;;;;14.10;9.47;;;23.30;1.00;;;;;;5031336;28;20223;-64
2021/08/13 08:23:15;;;;;;;11.90;9.67;;;23.30;1.00;;;;;;5031515;28;20252;-66
2021/08/13 08:25:42;;;;;;;18.77;10.23;;;23.30;1.00;;;;;;5032240;28;20202;-63
2021/08/13 08:28:08;;;;;;;17.50;10.60;;;23.20;1.00;;;;;;5030191;28;20647;-63
2021/08/13 08:30:35;;;;;;;17.13;12.00;;;23.20;1.00;;;;;;5032302;28;20261;-64
2021/08/13 08:33:02;;;;;;;17.30;11.80;;;23.10;1.00;;;;;;5051680;28;20209;-63
2021/08/13 08:35:28;;;;;;;17.13;12.00;;;22.90;1.00;;;;;;5046169;28;20600;-65
2021/08/13 08:37:56;;;;;;;19.77;12.20;;;22.80;1.00;;;;;;5032190;28;20256;-67
2021/08/13 08:40:27;;;;;;;20.00;12.83;;;22.80;1.00;;;;;;5036632;28;20350;-65
2021/08/13 08:42:56;;;;;;;17.73;13.37;;;22.80;1.00;;;;;;5051955;28;20250;-66
2021/08/13 08:45:23;;;;;;;19.70;13.43;;;22.90;1.00;;;;;;5036999;28;20258;-62
2021/08/13 08:47:50;;;;;;;19.60;13.53;;;22.80;1.00;;;;;;5043066;28;20283;-64
2021/08/13 08:50:17;;;;;;;22.43;15.27;;;22.70;1.00;;;;;;5051273;28;20221;-63
2021/08/13 08:52:45;;;;;;;20.63;14.87;;;22.70;1.00;;;;;;5051032;28;20205;-63
2021/08/13 08:55:12;;;;;;;22.57;16.53;;;22.90;1.00;;;;;;5039586;28;20260;-61
2021/08/13 08:57:42;;;;;;;26.63;15.97;;;23.00;1.00;;;;;;5051253;28;20212;-63
2021/08/13 09:00:09;;;;;;;24.47;15.80;;;23.10;1.00;;;;;;5051514;28;20225;-64
2021/08/13 09:02:36;;;;;;;20.30;14.80;;;23.30;1.00;;;;;;5040252;28;20202;-64
2021/08/13 09:05:04;;;;;;;23.03;15.70;;;23.50;1.00;;;;;;5030727;28;20276;-65
2021/08/13 09:07:30;;;;;;;24.13;14.43;;;23.60;1.00;;;;;;5031186;28;20206;-63
2021/08/13 09:09:59;;;;;;;29.10;16.70;;;23.80;1.00;;;;;;5030984;28;20799;-65
2021/08/13 09:12:26;;;;;;;23.37;16.13;;;23.90;1.00;;;;;;5031834;28;20207;-65
2021/08/13 09:14:54;;;;;;;25.63;16.17;;;24.00;1.00;;;;;;5030653;28;20202;-65
2021/08/13 09:17:28;;;;;;;20.47;15.43;;;23.90;1.00;;;;;;5031172;28;20206;-65
2021/08/13 09:19:54;;;;;;;21.27;15.00;;;23.90;1.00;;;;;;5036596;28;20198;-65
2021/08/13 09:22:22;;;;;;;23.47;15.53;;;24.00;1.00;;;;;;5050890;28;20287;-65
2021/08/13 09:24:50;;;;;;;26.57;17.37;;;24.10;1.00;;;;;;5050725;28;20229;-65
2021/08/13 09:27:23;;;;;;;26.03;17.33;;;24.00;1.00;;;;;;5050621;28;20552;-64
2021/08/13 09:30:12;;;;;;;27.20;16.90;;;24.10;1.00;;;;;;5050931;28;20209;-64
2021/08/13 09:32:39;;;;;;;24.27;17.37;;;24.10;1.00;;;;;;5051637;28;20212;-65
2021/08/13 09:35:06;;;;;;;25.53;17.67;;;24.10;1.00;;;;;;5054809;28;20201;-64
2021/08/13 09:37:34;;;;;;;28.83;18.13;;;24.20;1.00;;;;;;5053648;28;20205;-65
2021/08/13 09:40:00;;;;;;;23.07;17.63;;;24.30;1.00;;;;;;5054926;28;20259;-66
2021/08/13 09:42:35;;;;;;;27.73;18.83;;;24.30;1.00;;;;;;5054848;28;20213;-66
2021/08/13 09:45:05;;;;;;;24.37;17.93;;;24.40;1.00;;;;;;5054133;28;20332;-67
2021/08/13 09:47:44;;;;;;;24.73;18.87;;;24.40;1.00;;;;;;5055132;28;20209;-67
2021/08/13 09:50:12;;;;;;;25.97;18.20;;;24.40;1.00;;;;;;5054695;28;20229;-67
2021/08/13 09:52:39;;;;;;;30.67;20.20;;;24.40;1.00;;;;;;5054674;28;20550;-67
2021/08/13 09:55:08;;;;;;;28.97;18.67;;;24.40;1.00;;;;;;5052931;28;20222;-66
2021/08/13 09:57:43;;;;;;;28.00;19.43;;;24.40;1.00;;;;;;5054286;28;20206;-69
2021/08/13 10:00:11;;;;;;;26.17;18.17;;;24.60;1.00;;;;;;5054590;28;20527;-67
2021/08/13 10:02:39;;;;;;;27.30;20.37;;;24.50;1.00;;;;;;5054493;28;20641;-67
2021/08/13 10:05:21;;;;;;;25.17;18.83;;;24.40;1.00;;;;;;5055298;28;20278;-65
2021/08/13 10:07:50;;;;;;;24.47;17.50;;;24.60;1.00;;;;;;5054266;28;20229;-64
2021/08/13 10:10:17;;;;;;;23.50;18.57;;;24.80;1.00;;;;;;5054306;28;20236;-66
2021/08/13 10:12:46;;;;;;;23.27;16.97;;;24.90;1.00;;;;;;5052726;28;20206;-64
2021/08/13 10:15:28;;;;;;;23.83;17.30;;;24.80;1.00;;;;;;5053795;28;20206;-65
2021/08/13 10:17:55;;;;;;;29.37;20.00;;;24.80;1.00;;;;;;5054253;28;20213;-65
2021/08/13 10:20:24;;;;;;;24.87;18.47;;;24.90;1.00;;;;;;5053885;28;20237;-64
2021/08/13 10:22:51;;;;;;;25.60;18.27;;;25.10;1.00;;;;;;5053882;28;20217;-64
2021/08/13 10:25:18;;;;;;;25.23;16.20;;;25.20;1.00;;;;;;5053825;28;20225;-65
2021/08/13 10:27:46;;;;;;;24.17;15.97;;;25.20;1.00;;;;;;5054317;28;20255;-65
2021/08/13 10:30:13;;;;;;;24.13;18.20;;;25.10;1.00;;;;;;5052222;28;20233;-65
2021/08/13 10:32:40;;;;;;;26.80;17.07;;;25.00;1.00;;;;;;5053583;28;20210;-66
2021/08/13 10:35:08;;;;;;;25.50;18.40;;;25.00;1.00;;;;;;5053517;28;20202;-66
2021/08/13 10:37:38;;;;;;;23.40;16.33;;;24.90;1.00;;;;;;5054057;28;20210;-65
2021/08/13 10:40:06;;;;;;;23.43;15.87;;;24.90;1.00;;;;;;5054028;28;20230;-66
2021/08/13 10:42:35;;;;;;;26.07;18.33;;;25.00;1.00;;;;;;5053308;28;20255;-65
2021/08/13 10:45:05;;;;;;;26.90;17.00;;;25.00;1.00;;;;;;5052885;28;20275;-66
2021/08/13 10:47:35;;;;;;;24.90;17.20;;;24.90;1.00;;;;;;5051521;28;20206;-66
2021/08/13 10:50:04;;;;;;;24.17;15.13;;;25.00;1.00;;;;;;5054098;28;20201;-65
2021/08/13 10:52:37;;;;;;;20.97;13.57;;;25.00;1.00;;;;;;5053782;28;20205;-66
2021/08/13 10:55:04;;;;;;;21.93;12.80;;;25.10;1.00;;;;;;5052871;28;20666;-65
2021/08/13 10:57:55;;;;;;;19.20;12.07;;;25.00;1.00;;;;;;5053258;28;20213;-64
2021/08/13 11:00:22;;;;;;;17.10;12.43;;;25.10;1.00;;;;;;5053724;28;20241;-66
2021/08/13 11:03:18;;;;;;;17.97;11.83;;;25.10;1.00;;;;;;5053573;28;20228;-64
2021/08/13 11:05:53;;;;;;;17.40;11.43;;;25.00;1.00;;;;;;5041532;28;20231;-64
2021/08/13 11:08:21;;;;;;;26.57;10.17;;;25.00;1.00;;;;;;5044187;28;20910;-65
2021/08/13 11:10:56;;;;;;;13.50;9.00;;;25.00;1.00;;;;;;5053456;28;20225;-65
2021/08/13 11:13:23;;;;;;;13.27;8.53;;;25.10;1.00;;;;;;5034114;28;20233;-64
2021/08/13 11:15:50;;;;;;;13.40;7.70;;;25.00;1.00;;;;;;5033339;28;20241;-65
2021/08/13 11:18:27;;;;;;;11.63;7.70;;;25.10;1.00;;;;;;5033267;28;20206;-65
2021/08/13 11:20:54;;;;;;;20.30;7.47;;;25.30;1.00;;;;;;5032933;28;20288;-64
2021/08/13 11:23:22;;;;;;;13.27;7.20;;;25.20;99.90;;;;;;5035360;28;20214;-65
2021/08/13 11:25:50;;;;;;;10.40;6.57;;;25.40;1.00;;;;;;5052841;28;20271;-65
2021/08/13 11:28:20;;;;;;;10.80;7.10;;;25.50;1.00;;;;;;5052970;28;20736;-65
2021/08/13 11:30:47;;;;;;;11.90;6.60;;;25.40;1.00;;;;;;5052769;28;20229;-66
2021/08/13 11:33:35;;;;;;;10.53;6.67;;;25.50;1.00;;;;;;5052538;28;20263;-66
2021/08/13 11:36:02;;;;;;;17.93;6.80;;;25.60;1.00;;;;;;5043850;28;20206;-67
2021/08/13 11:39:00;;;;;;;11.23;6.93;;;25.70;1.00;;;;;;5053098;28;20206;-66
2021/08/13 11:41:28;;;;;;;9.93;7.10;;;25.70;99.90;;;;;;5052617;28;20232;-66
2021/08/13 11:43:57;;;;;;;11.10;6.97;;;25.80;99.90;;;;;;5052036;28;20232;-66
2021/08/13 11:46:26;;;;;;;9.73;6.63;;;25.90;99.90;;;;;;5052232;28;20226;-66
2021/08/13 11:48:56;;;;;;;11.50;7.13;;;25.60;99.90;;;;;;5052781;28;20252;-66
2021/08/13 11:51:24;;;;;;;12.10;6.57;;;25.40;99.90;;;;;;5052509;28;20232;-66
2021/08/13 11:53:51;;;;;;;8.57;6.60;;;25.60;99.90;;;;;;5052048;28;20212;-66
2021/08/13 11:56:29;;;;;;;8.50;5.53;;;25.70;99.90;;;;;;5050778;28;20252;-65
2021/08/13 11:59:04;;;;;;;10.10;6.17;;;25.60;99.90;;;;;;5052529;28;20209;-65
2021/08/13 12:01:47;;;;;;;9.23;6.00;;;25.20;99.90;;;;;;5052640;28;20233;-66
2021/08/13 12:04:18;;;;;;;10.67;5.73;;;25.30;99.90;;;;;;5051821;28;20295;-64
2021/08/13 12:06:59;;;;;;;9.73;5.27;;;25.30;1.00;;;;;;5051719;28;20229;-65
2021/08/13 12:09:37;;;;;;;9.57;5.70;;;25.50;1.00;;;;;;5052432;28;20201;-64
2021/08/13 12:12:07;;;;;;;10.47;5.33;;;25.60;99.90;;;;;;5052073;28;20229;-64
2021/08/13 12:14:34;;;;;;;7.77;5.23;;;25.60;99.90;;;;;;5051670;28;20216;-65
2021/08/13 12:17:01;;;;;;;8.93;4.80;;;25.50;99.90;;;;;;5051440;28;20267;-65
2021/08/13 12:19:27;;;;;;;6.83;4.57;;;25.50;99.90;;;;;;5052246;28;20536;-66
2021/08/13 12:21:56;;;;;;;8.63;4.20;;;25.60;99.90;;;;;;5052058;28;20225;-67
2021/08/13 12:24:33;;;;;;;8.90;4.37;;;25.70;99.90;;;;;;5051895;28;20557;-67
2021/08/13 12:27:01;;;;;;;6.17;3.90;;;25.90;99.90;;;;;;5052074;28;20208;-66
2021/08/13 12:29:31;;;;;;;6.40;3.57;;;25.70;99.90;;;;;;5052083;28;20208;-66
2021/08/13 12:31:59;;;;;;;5.53;3.90;;;25.70;99.90;;;;;;5051787;28;20311;-65
2021/08/13 12:34:27;;;;;;;5.90;3.87;;;25.80;99.90;;;;;;5052164;28;20271;-66
2021/08/13 12:37:05;;;;;;;6.17;3.40;;;25.90;99.90;;;;;;5052407;28;20201;-68
2021/08/13 12:39:33;;;;;;;5.10;2.93;;;26.10;99.90;;;;;;5052440;28;20674;-69
2021/08/13 12:42:00;;;;;;;5.27;2.87;;;26.30;99.90;;;;;;5051825;28;20284;-66
2021/08/13 12:44:28;;;;;;;4.00;2.50;;;26.10;99.90;;;;;;5052296;28;20240;-67
2021/08/13 12:46:55;;;;;;;4.50;2.90;;;25.80;99.90;;;;;;5051910;28;20255;-67